sensor_id;sensor_type;location;lat;lon;timestamp;pressure;altitude;pressure_sealevel;temperature;humidity
25650;BME280;13505;45.196;5.696;2023-02-07T05:00:29;100414.00;;;3.80;83.01
25650;BME280;13505;45.196;5.696;2023-02-07T05:05:19;100416.47;;;3.38;86.37
25650;BME280;13505;45.196;5.696;2023-02-07T05:10:09;100412.94;;;3.22;89.22
25650;BME280;13505;45.196;5.696;2023-02-07T05:15:00;100410.28;;;3.14;91.56
25650;BME280;13505;45.196;5.696;2023-02-07T05:19:50;100430.38;;;3.32;91.80
25650;BME280;13505;45.196;5.696;2023-02-07T05:24:41;100442.56;;;3.32;91.90
25650;BME280;13505;45.196;5.696;2023-02-07T05:29:32;100460.88;;;3.52;92.11
25650;BME280;13505;45.196;5.696;2023-02-07T05:34:23;100465.25;;;3.62;91.39
25650;BME280;13505;45.196;5.696;2023-02-07T05:39:13;100472.25;;;3.65;90.88
25650;BME280;13505;45.196;5.696;2023-02-07T05:44:04;100483.50;;;3.61;90.39
25650;BME280;13505;45.196;5.696;2023-02-07T05:48:54;100491.28;;;3.48;90.02
25650;BME280;13505;45.196;5.696;2023-02-07T05:53:44;100496.28;;;3.02;92.79
25650;BME280;13505;45.196;5.696;2023-02-07T05:58:35;100505.84;;;3.06;94.59
25650;BME280;13505;45.196;5.696;2023-02-07T06:03:25;100519.81;;;3.17;93.74
25650;BME280;13505;45.196;5.696;2023-02-07T06:08:15;100513.91;;;3.40;93.92
25650;BME280;13505;45.196;5.696;2023-02-07T06:13:06;100526.81;;;3.21;93.46
25650;BME280;13505;45.196;5.696;2023-02-07T06:17:56;100545.72;;;2.91;95.18
25650;BME280;13505;45.196;5.696;2023-02-07T06:22:46;100554.44;;;2.93;96.12
25650;BME280;13505;45.196;5.696;2023-02-07T06:27:40;100572.06;;;3.25;95.14
25650;BME280;13505;45.196;5.696;2023-02-07T06:32:31;100564.34;;;3.45;94.16
25650;BME280;13505;45.196;5.696;2023-02-07T06:37:21;100568.59;;;3.29;94.16
25650;BME280;13505;45.196;5.696;2023-02-07T06:42:12;100577.25;;;3.27;95.25
25650;BME280;13505;45.196;5.696;2023-02-07T06:47:02;100576.41;;;3.28;95.23
25650;BME280;13505;45.196;5.696;2023-02-07T06:51:53;100583.34;;;3.24;94.97
25650;BME280;13505;45.196;5.696;2023-02-07T06:56:43;100594.75;;;3.42;94.17
25650;BME280;13505;45.196;5.696;2023-02-07T07:01:34;100596.38;;;3.23;94.71
25650;BME280;13505;45.196;5.696;2023-02-07T07:06:24;100608.53;;;3.24;94.53
25650;BME280;13505;45.196;5.696;2023-02-07T07:11:15;100618.09;;;3.21;94.29
25650;BME280;13505;45.196;5.696;2023-02-07T07:16:05;100622.41;;;3.15;93.68
25650;BME280;13505;45.196;5.696;2023-02-07T07:20:56;100624.09;;;3.11;94.32
25650;BME280;13505;45.196;5.696;2023-02-07T07:25:46;100635.25;;;2.93;96.86
25650;BME280;13505;45.196;5.696;2023-02-07T07:30:36;100647.47;;;2.99;97.72
25650;BME280;13505;45.196;5.696;2023-02-07T07:35:27;100672.03;;;3.29;97.04
25650;BME280;13505;45.196;5.696;2023-02-07T07:40:18;100672.09;;;3.35;95.08
25650;BME280;13505;45.196;5.696;2023-02-07T07:45:08;100686.56;;;2.97;96.35
25650;BME280;13505;45.196;5.696;2023-02-07T07:50:00;100685.56;;;2.84;98.51
25650;BME280;13505;45.196;5.696;2023-02-07T07:54:50;100690.88;;;2.93;99.40
25650;BME280;13505;45.196;5.696;2023-02-07T07:59:40;100699.66;;;3.03;98.93
25650;BME280;13505;45.196;5.696;2023-02-07T08:04:31;100698.09;;;3.23;99.85
25650;BME280;13505;45.196;5.696;2023-02-07T08:09:21;100704.44;;;3.56;97.86
25650;BME280;13505;45.196;5.696;2023-02-07T08:14:11;100710.84;;;4.04;95.20
25650;BME280;13505;45.196;5.696;2023-02-07T08:19:02;100711.81;;;4.27;92.00
25650;BME280;13505;45.196;5.696;2023-02-07T08:23:53;100726.34;;;3.78;91.54
25650;BME280;13505;45.196;5.696;2023-02-07T08:28:43;100722.25;;;4.22;90.57
25650;BME280;13505;45.196;5.696;2023-02-07T08:33:34;100720.28;;;3.79;90.81
25650;BME280;13505;45.196;5.696;2023-02-07T08:38:24;100736.13;;;4.12;91.63
25650;BME280;13505;45.196;5.696;2023-02-07T08:43:15;100726.78;;;4.71;88.31
25650;BME280;13505;45.196;5.696;2023-02-07T08:48:05;100732.09;;;5.07;84.45
25650;BME280;13505;45.196;5.696;2023-02-07T08:52:56;100731.22;;;4.99;83.53
25650;BME280;13505;45.196;5.696;2023-02-07T08:57:46;100741.75;;;5.33;82.82
25650;BME280;13505;45.196;5.696;2023-02-07T09:02:39;100753.91;;;5.01;81.40
25650;BME280;13505;45.196;5.696;2023-02-07T09:07:31;100749.59;;;5.41;81.88
25650;BME280;13505;45.196;5.696;2023-02-07T09:12:22;100754.81;;;5.70;79.83
25650;BME280;13505;45.196;5.696;2023-02-07T09:17:12;100762.69;;;5.73;80.32
25650;BME280;13505;45.196;5.696;2023-02-07T09:22:03;100769.66;;;5.68;80.59
25650;BME280;13505;45.196;5.696;2023-02-07T09:26:54;100769.69;;;5.61;80.24
25650;BME280;13505;45.196;5.696;2023-02-07T09:31:44;100766.16;;;5.93;79.41
25650;BME280;13505;45.196;5.696;2023-02-07T09:36:35;100781.84;;;5.99;78.56
25650;BME280;13505;45.196;5.696;2023-02-07T09:41:39;100770.50;;;6.20;77.85
25650;BME280;13505;45.196;5.696;2023-02-07T09:46:35;100781.88;;;5.97;76.79
25650;BME280;13505;45.196;5.696;2023-02-07T09:51:27;100787.13;;;5.90;76.22
25650;BME280;13505;45.196;5.696;2023-02-07T09:56:18;100793.22;;;6.12;76.65
25650;BME280;13505;45.196;5.696;2023-02-07T10:01:16;100797.56;;;6.32;76.03
25650;BME280;13505;45.196;5.696;2023-02-07T10:06:24;100794.09;;;6.25;75.96
25650;BME280;13505;45.196;5.696;2023-02-07T10:11:44;100805.31;;;6.69;75.35
25650;BME280;13505;45.196;5.696;2023-02-07T10:26:52;100797.25;;;7.09;71.81
25650;BME280;13505;45.196;5.696;2023-02-07T10:31:46;100792.84;;;7.18;68.39
25650;BME280;13505;45.196;5.696;2023-02-07T10:36:40;100778.97;;;6.98;68.60
25650;BME280;13505;45.196;5.696;2023-02-07T10:41:38;100785.22;;;6.66;71.13
25650;BME280;13505;45.196;5.696;2023-02-07T10:46:29;100769.97;;;7.32;70.13
25650;BME280;13505;45.196;5.696;2023-02-07T10:51:25;100777.88;;;7.31;67.43
25650;BME280;13505;45.196;5.696;2023-02-07T10:56:22;100765.66;;;7.30;65.86
25650;BME280;13505;45.196;5.696;2023-02-07T11:01:24;100765.31;;;7.72;65.15
25650;BME280;13505;45.196;5.696;2023-02-07T11:06:27;100769.84;;;7.52;64.83
25650;BME280;13505;45.196;5.696;2023-02-07T11:11:30;100764.56;;;7.54;67.66
25650;BME280;13505;45.196;5.696;2023-02-07T11:16:23;100757.81;;;8.25;65.58
25650;BME280;13505;45.196;5.696;2023-02-07T11:26:14;100743.16;;;8.01;61.90
25650;BME280;13505;45.196;5.696;2023-02-07T11:31:09;100746.41;;;8.24;59.17
25650;BME280;13505;45.196;5.696;2023-02-07T11:40:57;100737.78;;;8.85;56.05
25650;BME280;13505;45.196;5.696;2023-02-07T11:45:57;100733.81;;;8.53;55.36
25650;BME280;13505;45.196;5.696;2023-02-07T11:50:53;100720.59;;;8.59;54.53
25650;BME280;13505;45.196;5.696;2023-02-07T11:55:44;100715.53;;;8.41;54.16
25650;BME280;13505;45.196;5.696;2023-02-07T12:00:36;100702.97;;;9.27;53.82
25650;BME280;13505;45.196;5.696;2023-02-07T12:05:31;100700.41;;;9.74;51.02
25650;BME280;13505;45.196;5.696;2023-02-07T12:10:28;100699.84;;;9.03;48.88
25650;BME280;13505;45.196;5.696;2023-02-07T12:15:44;100698.03;;;9.05;48.57
25650;BME280;13505;45.196;5.696;2023-02-07T12:20:45;100696.75;;;8.72;47.46
25650;BME280;13505;45.196;5.696;2023-02-07T12:25:44;100691.91;;;9.05;47.36
25650;BME280;13505;45.196;5.696;2023-02-07T12:30:42;100677.09;;;9.53;46.48
25650;BME280;13505;45.196;5.696;2023-02-07T12:36:02;100672.84;;;9.91;47.25
25650;BME280;13505;45.196;5.696;2023-02-07T12:56:25;100653.69;;;9.35;42.69
25650;BME280;13505;45.196;5.696;2023-02-07T13:01:24;100651.25;;;9.73;43.51
25650;BME280;13505;45.196;5.696;2023-02-07T13:06:33;100634.66;;;9.68;41.36
25650;BME280;13505;45.196;5.696;2023-02-07T13:16:43;100618.56;;;9.82;37.98
25650;BME280;13505;45.196;5.696;2023-02-07T13:21:58;100604.13;;;10.44;37.86
25650;BME280;13505;45.196;5.696;2023-02-07T13:26:54;100611.63;;;10.63;35.73
25650;BME280;13505;45.196;5.696;2023-02-07T13:31:52;100605.84;;;10.47;33.89
25650;BME280;13505;45.196;5.696;2023-02-07T13:36:49;100598.06;;;10.77;35.63
25650;BME280;13505;45.196;5.696;2023-02-07T13:52:30;100615.06;;;11.03;38.32
25650;BME280;13505;45.196;5.696;2023-02-07T14:02:44;100611.84;;;11.91;43.30
25650;BME280;13505;45.196;5.696;2023-02-07T14:07:36;100619.91;;;11.86;42.54
25650;BME280;13505;45.196;5.696;2023-02-07T14:12:30;100631.88;;;11.68;41.28
25650;BME280;13505;45.196;5.696;2023-02-07T14:27:35;100638.06;;;11.67;39.67
25650;BME280;13505;45.196;5.696;2023-02-07T14:32:29;100637.44;;;11.57;39.64
25650;BME280;13505;45.196;5.696;2023-02-07T14:37:33;100630.75;;;11.44;39.24
25650;BME280;13505;45.196;5.696;2023-02-07T14:42:25;100632.66;;;11.39;40.46
25650;BME280;13505;45.196;5.696;2023-02-07T14:47:22;100625.69;;;11.36;38.15
25650;BME280;13505;45.196;5.696;2023-02-07T14:52:21;100631.41;;;11.19;39.27
25650;BME280;13505;45.196;5.696;2023-02-07T14:57:25;100618.38;;;11.11;38.67
25650;BME280;13505;45.196;5.696;2023-02-07T15:07:28;100619.84;;;10.87;39.67
25650;BME280;13505;45.196;5.696;2023-02-07T15:12:23;100619.31;;;10.72;41.11
25650;BME280;13505;45.196;5.696;2023-02-07T15:17:21;100632.50;;;10.72;40.45
25650;BME280;13505;45.196;5.696;2023-02-07T15:22:25;100636.63;;;10.45;40.84
25650;BME280;13505;45.196;5.696;2023-02-07T15:27:23;100634.75;;;10.52;40.58
25650;BME280;13505;45.196;5.696;2023-02-07T15:32:25;100629.59;;;10.45;41.37
25650;BME280;13505;45.196;5.696;2023-02-07T15:37:21;100632.03;;;10.55;41.83
25650;BME280;13505;45.196;5.696;2023-02-07T15:42:18;100638.25;;;10.51;42.48
25650;BME280;13505;45.196;5.696;2023-02-07T15:52:35;100636.41;;;10.13;43.50
25650;BME280;13505;45.196;5.696;2023-02-07T15:57:32;100639.22;;;10.04;44.32
25650;BME280;13505;45.196;5.696;2023-02-07T16:02:35;100642.13;;;9.91;44.43
25650;BME280;13505;45.196;5.696;2023-02-07T16:07:26;100647.91;;;9.63;44.72
25650;BME280;13505;45.196;5.696;2023-02-07T16:17:38;100651.59;;;9.01;44.94
25650;BME280;13505;45.196;5.696;2023-02-07T16:22:31;100645.75;;;8.82;45.48
25650;BME280;13505;45.196;5.696;2023-02-07T16:27:23;100649.28;;;8.81;45.59
25650;BME280;13505;45.196;5.696;2023-02-07T16:32:16;100655.22;;;8.94;45.89
25650;BME280;13505;45.196;5.696;2023-02-07T16:37:06;100655.38;;;8.85;45.63
25650;BME280;13505;45.196;5.696;2023-02-07T16:42:04;100653.72;;;8.76;46.21
25650;BME280;13505;45.196;5.696;2023-02-07T16:46:54;100655.75;;;8.57;46.33
25650;BME280;13505;45.196;5.696;2023-02-07T16:51:45;100655.84;;;8.50;47.33
25650;BME280;13505;45.196;5.696;2023-02-07T16:56:35;100662.78;;;8.56;46.98
25650;BME280;13505;45.196;5.696;2023-02-07T17:01:26;100670.78;;;8.45;47.07
25650;BME280;13505;45.196;5.696;2023-02-07T17:06:19;100663.91;;;8.33;48.46
25650;BME280;13505;45.196;5.696;2023-02-07T17:11:18;100674.53;;;8.26;48.09
25650;BME280;13505;45.196;5.696;2023-02-07T17:16:14;100686.94;;;8.14;48.58
25650;BME280;13505;45.196;5.696;2023-02-07T17:21:05;100689.66;;;8.05;49.11
25650;BME280;13505;45.196;5.696;2023-02-07T17:25:57;100682.78;;;7.94;49.03
25650;BME280;13505;45.196;5.696;2023-02-07T17:30:48;100694.31;;;7.81;49.93
25650;BME280;13505;45.196;5.696;2023-02-07T17:35:39;100689.19;;;7.67;50.37
25650;BME280;13505;45.196;5.696;2023-02-07T17:40:35;100686.69;;;7.54;50.52
25650;BME280;13505;45.196;5.696;2023-02-07T17:45:26;100693.69;;;7.52;50.54
25650;BME280;13505;45.196;5.696;2023-02-07T17:50:21;100691.06;;;7.52;49.70
25650;BME280;13505;45.196;5.696;2023-02-07T17:55:13;100690.34;;;7.35;49.62
25650;BME280;13505;45.196;5.696;2023-02-07T18:00:04;100696.50;;;7.31;49.63
25650;BME280;13505;45.196;5.696;2023-02-07T18:04:54;100695.66;;;7.25;50.36
25650;BME280;13505;45.196;5.696;2023-02-07T18:09:47;100700.16;;;7.09;49.79
25650;BME280;13505;45.196;5.696;2023-02-07T18:14:37;100696.66;;;7.12;50.69
25650;BME280;13505;45.196;5.696;2023-02-07T18:19:27;100700.16;;;7.11;50.48
25650;BME280;13505;45.196;5.696;2023-02-07T18:24:20;100709.03;;;6.90;50.07
25650;BME280;13505;45.196;5.696;2023-02-07T18:29:11;100712.50;;;6.95;50.86
25650;BME280;13505;45.196;5.696;2023-02-07T18:34:01;100704.69;;;6.86;51.12
25650;BME280;13505;45.196;5.696;2023-02-07T18:38:52;100702.09;;;6.81;51.07
25650;BME280;13505;45.196;5.696;2023-02-07T18:43:42;100703.84;;;6.77;50.95
25650;BME280;13505;45.196;5.696;2023-02-07T18:48:32;100710.91;;;6.69;51.32
25650;BME280;13505;45.196;5.696;2023-02-07T18:53:23;100695.22;;;6.64;51.62
25650;BME280;13505;45.196;5.696;2023-02-07T18:58:13;100696.97;;;6.57;50.71
25650;BME280;13505;45.196;5.696;2023-02-07T19:03:04;100690.00;;;6.53;50.71
25650;BME280;13505;45.196;5.696;2023-02-07T19:07:54;100697.84;;;6.58;50.73
25650;BME280;13505;45.196;5.696;2023-02-07T19:12:45;100683.03;;;6.46;50.60
25650;BME280;13505;45.196;5.696;2023-02-07T19:17:35;100689.19;;;6.44;50.67
25650;BME280;13505;45.196;5.696;2023-02-07T19:22:26;100698.78;;;6.43;50.91
25650;BME280;13505;45.196;5.696;2023-02-07T19:27:18;100693.59;;;6.35;50.72
25650;BME280;13505;45.196;5.696;2023-02-07T19:32:08;100684.88;;;6.32;51.11
25650;BME280;13505;45.196;5.696;2023-02-07T19:36:59;100694.53;;;6.20;52.30
25650;BME280;13505;45.196;5.696;2023-02-07T19:41:51;100704.13;;;6.10;52.66
25650;BME280;13505;45.196;5.696;2023-02-07T19:46:42;100703.28;;;6.00;nan
25650;BME280;13505;45.196;5.696;2023-02-07T19:51:33;100705.06;;;5.84;53.55
25650;BME280;13505;45.196;5.696;2023-02-07T19:56:26;100713.78;;;5.83;52.70
25650;BME280;13505;45.196;5.696;2023-02-07T20:01:18;100705.97;;;5.76;52.98
25650;BME280;13505;45.196;5.696;2023-02-07T20:06:12;100706.84;;;5.64;53.93
25650;BME280;13505;45.196;5.696;2023-02-07T20:11:08;100712.94;;;5.49;54.24
25650;BME280;13505;45.196;5.696;2023-02-07T20:15:59;100712.94;;;5.39;54.48
25650;BME280;13505;45.196;5.696;2023-02-07T20:20:52;100714.72;;;5.26;55.12
25650;BME280;13505;45.196;5.696;2023-02-07T20:25:42;100724.28;;;5.16;55.27
25650;BME280;13505;45.196;5.696;2023-02-07T20:30:33;100719.91;;;5.06;55.64
25650;BME280;13505;45.196;5.696;2023-02-07T20:35:24;100721.66;;;5.01;55.81
25650;BME280;13505;45.196;5.696;2023-02-07T20:40:16;100716.38;;;4.85;56.67
25650;BME280;13505;45.196;5.696;2023-02-07T20:45:07;100718.13;;;4.83;56.26
25650;BME280;13505;45.196;5.696;2023-02-07T20:49:58;100725.03;;;4.66;57.05
25650;BME280;13505;45.196;5.696;2023-02-07T20:54:48;100719.00;;;4.79;56.57
25650;BME280;13505;45.196;5.696;2023-02-07T20:59:38;100719.84;;;4.75;57.15
25650;BME280;13505;45.196;5.696;2023-02-07T21:04:29;100720.69;;;4.63;56.69
25650;BME280;13505;45.196;5.696;2023-02-07T21:09:20;100727.59;;;4.50;57.11
25650;BME280;13505;45.196;5.696;2023-02-07T21:14:20;100734.50;;;4.31;58.65
25650;BME280;13505;45.196;5.696;2023-02-07T21:19:11;100735.31;;;4.22;58.80
25650;BME280;13505;45.196;5.696;2023-02-07T21:24:02;100741.34;;;4.13;58.99
25650;BME280;13505;45.196;5.696;2023-02-07T21:29:01;100741.31;;;4.05;59.78
25650;BME280;13505;45.196;5.696;2023-02-07T21:33:52;100743.81;;;3.87;59.72
25650;BME280;13505;45.196;5.696;2023-02-07T21:38:45;100753.34;;;3.83;60.47
25650;BME280;13505;45.196;5.696;2023-02-07T21:43:37;100754.09;;;3.68;60.62
25650;BME280;13505;45.196;5.696;2023-02-07T21:48:29;100756.66;;;3.60;61.46
25650;BME280;13505;45.196;5.696;2023-02-07T21:53:19;100754.00;;;3.54;61.89
25650;BME280;13505;45.196;5.696;2023-02-07T21:58:10;100753.06;;;3.46;63.33
25650;BME280;13505;45.196;5.696;2023-02-07T22:03:00;100748.63;;;3.34;63.38
25650;BME280;13505;45.196;5.696;2023-02-07T22:07:50;100740.75;;;3.32;63.04
25650;BME280;13505;45.196;5.696;2023-02-07T22:12:41;100741.59;;;3.28;63.52
25650;BME280;13505;45.196;5.696;2023-02-07T22:17:31;100726.72;;;3.15;63.45
25650;BME280;13505;45.196;5.696;2023-02-07T22:22:21;100731.94;;;3.15;65.35
25650;BME280;13505;45.196;5.696;2023-02-07T22:27:12;100729.50;;;3.35;64.97
25650;BME280;13505;45.196;5.696;2023-02-07T22:32:02;100724.28;;;3.35;63.97
25650;BME280;13505;45.196;5.696;2023-02-07T22:36:52;100725.06;;;3.28;63.58
25650;BME280;13505;45.196;5.696;2023-02-07T22:41:43;100731.06;;;3.17;64.01
25650;BME280;13505;45.196;5.696;2023-02-07T22:46:34;100734.56;;;3.21;65.20
25650;BME280;13505;45.196;5.696;2023-02-07T22:51:28;100739.06;;;3.36;63.99
25650;BME280;13505;45.196;5.696;2023-02-07T22:56:18;100743.31;;;3.25;64.26
